sensor_id;sensor_type;location;lat;lon;timestamp;P1;durP1;ratioP1;P2;durP2;ratioP2
57291;SDS011;43144;50.972;18.220;2022-09-09T00:01:37;5.60;;;5.20;;
57291;SDS011;43144;50.972;18.220;2022-09-09T00:04:15;6.40;;;5.40;;
57291;SDS011;43144;50.972;18.220;2022-09-09T00:06:53;7.70;;;5.00;;
57291;SDS011;43144;50.972;18.220;2022-09-09T00:09:24;5.90;;;5.10;;
57291;SDS011;43144;50.972;18.220;2022-09-09T00:11:56;5.60;;;5.10;;
57291;SDS011;43144;50.972;18.220;2022-09-09T00:14:32;5.80;;;5.40;;
57291;SDS011;43144;50.972;18.220;2022-09-09T00:17:06;5.90;;;5.30;;
57291;SDS011;43144;50.972;18.220;2022-09-09T00:19:38;5.70;;;5.30;;
57291;SDS011;43144;50.972;18.220;2022-09-09T00:22:16;6.10;;;5.70;;
57291;SDS011;43144;50.972;18.220;2022-09-09T00:24:45;6.10;;;5.70;;
57291;SDS011;43144;50.972;18.220;2022-09-09T00:27:19;6.40;;;5.90;;
57291;SDS011;43144;50.972;18.220;2022-09-09T00:29:53;6.70;;;6.20;;
57291;SDS011;43144;50.972;18.220;2022-09-09T00:32:24;6.70;;;6.20;;
57291;SDS011;43144;50.972;18.220;2022-09-09T00:34:56;6.90;;;6.40;;
57291;SDS011;43144;50.972;18.220;2022-09-09T00:37:28;7.20;;;6.60;;
57291;SDS011;43144;50.972;18.220;2022-09-09T00:39:57;7.10;;;6.60;;
57291;SDS011;43144;50.972;18.220;2022-09-09T00:42:30;7.60;;;7.10;;
57291;SDS011;43144;50.972;18.220;2022-09-09T00:45:07;8.00;;;7.50;;
57291;SDS011;43144;50.972;18.220;2022-09-09T00:47:46;7.70;;;7.20;;
57291;SDS011;43144;50.972;18.220;2022-09-09T00:50:25;8.70;;;7.90;;
57291;SDS011;43144;50.972;18.220;2022-09-09T00:53:04;9.00;;;8.30;;
57291;SDS011;43144;50.972;18.220;2022-09-09T00:55:38;9.20;;;8.60;;
57291;SDS011;43144;50.972;18.220;2022-09-09T00:58:10;10.80;;;9.70;;
57291;SDS011;43144;50.972;18.220;2022-09-09T01:00:41;10.90;;;10.00;;
57291;SDS011;43144;50.972;18.220;2022-09-09T01:03:17;11.50;;;10.50;;
57291;SDS011;43144;50.972;18.220;2022-09-09T01:05:54;12.60;;;11.40;;
57291;SDS011;43144;50.972;18.220;2022-09-09T01:08:32;15.20;;;11.00;;
57291;SDS011;43144;50.972;18.220;2022-09-09T01:11:09;13.10;;;11.70;;
57291;SDS011;43144;50.972;18.220;2022-09-09T01:13:40;16.20;;;11.70;;
57291;SDS011;43144;50.972;18.220;2022-09-09T01:16:10;12.70;;;11.60;;
57291;SDS011;43144;50.972;18.220;2022-09-09T01:18:39;12.50;;;11.40;;
57291;SDS011;43144;50.972;18.220;2022-09-09T01:21:20;13.20;;;11.90;;
57291;SDS011;43144;50.972;18.220;2022-09-09T01:24:04;14.80;;;12.60;;
57291;SDS011;43144;50.972;18.220;2022-09-09T01:26:40;13.50;;;12.30;;
57291;SDS011;43144;50.972;18.220;2022-09-09T01:29:10;13.80;;;12.50;;
57291;SDS011;43144;50.972;18.220;2022-09-09T01:31:41;13.30;;;12.00;;
57291;SDS011;43144;50.972;18.220;2022-09-09T01:34:18;13.50;;;12.40;;
57291;SDS011;43144;50.972;18.220;2022-09-09T01:36:47;13.90;;;12.70;;
57291;SDS011;43144;50.972;18.220;2022-09-09T01:39:18;14.20;;;12.90;;
57291;SDS011;43144;50.972;18.220;2022-09-09T01:41:47;14.80;;;13.40;;
57291;SDS011;43144;50.972;18.220;2022-09-09T01:44:16;14.50;;;13.20;;
57291;SDS011;43144;50.972;18.220;2022-09-09T01:46:44;14.60;;;13.30;;
57291;SDS011;43144;50.972;18.220;2022-09-09T01:49:13;16.20;;;14.70;;
57291;SDS011;43144;50.972;18.220;2022-09-09T01:51:42;15.50;;;13.90;;
57291;SDS011;43144;50.972;18.220;2022-09-09T01:54:11;15.60;;;14.30;;
57291;SDS011;43144;50.972;18.220;2022-09-09T01:56:42;15.90;;;14.50;;
57291;SDS011;43144;50.972;18.220;2022-09-09T01:59:24;15.20;;;13.90;;
57291;SDS011;43144;50.972;18.220;2022-09-09T02:02:00;15.60;;;14.20;;
57291;SDS011;43144;50.972;18.220;2022-09-09T02:04:37;15.80;;;14.40;;
57291;SDS011;43144;50.972;18.220;2022-09-09T02:07:09;14.90;;;13.80;;
57291;SDS011;43144;50.972;18.220;2022-09-09T02:09:44;15.70;;;14.20;;
57291;SDS011;43144;50.972;18.220;2022-09-09T02:12:16;15.60;;;14.40;;
57291;SDS011;43144;50.972;18.220;2022-09-09T02:14:49;14.90;;;13.80;;
57291;SDS011;43144;50.972;18.220;2022-09-09T02:17:21;14.90;;;13.70;;
57291;SDS011;43144;50.972;18.220;2022-09-09T02:22:21;14.60;;;13.50;;
57291;SDS011;43144;50.972;18.220;2022-09-09T02:24:50;14.70;;;13.40;;
57291;SDS011;43144;50.972;18.220;2022-09-09T02:27:20;14.20;;;12.90;;
57291;SDS011;43144;50.972;18.220;2022-09-09T02:29:48;14.90;;;13.80;;
57291;SDS011;43144;50.972;18.220;2022-09-09T02:32:19;14.10;;;13.00;;
57291;SDS011;43144;50.972;18.220;2022-09-09T02:34:49;14.10;;;13.00;;
57291;SDS011;43144;50.972;18.220;2022-09-09T02:37:20;13.30;;;12.20;;
57291;SDS011;43144;50.972;18.220;2022-09-09T02:39:50;13.20;;;12.20;;
57291;SDS011;43144;50.972;18.220;2022-09-09T02:42:18;12.90;;;12.00;;
57291;SDS011;43144;50.972;18.220;2022-09-09T02:44:46;12.50;;;11.40;;
57291;SDS011;43144;50.972;18.220;2022-09-09T02:47:19;11.90;;;11.10;;
57291;SDS011;43144;50.972;18.220;2022-09-09T02:49:56;12.10;;;11.20;;
57291;SDS011;43144;50.972;18.220;2022-09-09T02:52:30;12.60;;;11.70;;
57291;SDS011;43144;50.972;18.220;2022-09-09T02:55:05;11.30;;;10.50;;
57291;SDS011;43144;50.972;18.220;2022-09-09T02:57:36;12.10;;;11.10;;
57291;SDS011;43144;50.972;18.220;2022-09-09T03:00:05;12.10;;;10.40;;
57291;SDS011;43144;50.972;18.220;2022-09-09T03:02:34;11.70;;;10.90;;
57291;SDS011;43144;50.972;18.220;2022-09-09T03:05:03;11.40;;;10.50;;
57291;SDS011;43144;50.972;18.220;2022-09-09T03:07:32;10.90;;;10.00;;
57291;SDS011;43144;50.972;18.220;2022-09-09T03:10:00;11.30;;;10.40;;
57291;SDS011;43144;50.972;18.220;2022-09-09T03:12:28;10.50;;;9.80;;
57291;SDS011;43144;50.972;18.220;2022-09-09T03:14:56;10.90;;;10.10;;
57291;SDS011;43144;50.972;18.220;2022-09-09T03:17:24;10.30;;;9.50;;
57291;SDS011;43144;50.972;18.220;2022-09-09T03:19:53;10.30;;;9.60;;
57291;SDS011;43144;50.972;18.220;2022-09-09T03:22:21;10.10;;;9.40;;
57291;SDS011;43144;50.972;18.220;2022-09-09T03:24:49;9.60;;;8.90;;
57291;SDS011;43144;50.972;18.220;2022-09-09T03:27:17;9.40;;;8.70;;
57291;SDS011;43144;50.972;18.220;2022-09-09T03:29:46;9.60;;;9.00;;
57291;SDS011;43144;50.972;18.220;2022-09-09T03:32:14;8.90;;;8.30;;
57291;SDS011;43144;50.972;18.220;2022-09-09T03:34:42;9.90;;;9.10;;
57291;SDS011;43144;50.972;18.220;2022-09-09T03:37:11;9.30;;;8.70;;
57291;SDS011;43144;50.972;18.220;2022-09-09T03:39:39;9.10;;;8.50;;
57291;SDS011;43144;50.972;18.220;2022-09-09T03:42:07;9.00;;;8.40;;
57291;SDS011;43144;50.972;18.220;2022-09-09T03:44:35;9.30;;;8.70;;
57291;SDS011;43144;50.972;18.220;2022-09-09T03:47:04;8.70;;;8.10;;
57291;SDS011;43144;50.972;18.220;2022-09-09T03:49:32;8.70;;;8.00;;
57291;SDS011;43144;50.972;18.220;2022-09-09T03:52:01;8.80;;;8.20;;
57291;SDS011;43144;50.972;18.220;2022-09-09T03:54:29;8.10;;;7.60;;
57291;SDS011;43144;50.972;18.220;2022-09-09T03:56:57;8.20;;;7.50;;
57291;SDS011;43144;50.972;18.220;2022-09-09T03:59:25;9.50;;;8.80;;
57291;SDS011;43144;50.972;18.220;2022-09-09T04:01:54;8.70;;;8.10;;
57291;SDS011;43144;50.972;18.220;2022-09-09T04:04:22;8.80;;;8.20;;
57291;SDS011;43144;50.972;18.220;2022-09-09T04:06:50;7.90;;;7.30;;
57291;SDS011;43144;50.972;18.220;2022-09-09T04:09:18;7.90;;;7.20;;
57291;SDS011;43144;50.972;18.220;2022-09-09T04:11:47;8.30;;;7.40;;
57291;SDS011;43144;50.972;18.220;2022-09-09T04:14:15;8.10;;;7.60;;
57291;SDS011;43144;50.972;18.220;2022-09-09T04:16:43;8.50;;;7.40;;
57291;SDS011;43144;50.972;18.220;2022-09-09T04:19:11;7.10;;;6.70;;
57291;SDS011;43144;50.972;18.220;2022-09-09T04:21:40;7.10;;;6.60;;
57291;SDS011;43144;50.972;18.220;2022-09-09T04:24:09;7.10;;;6.70;;
57291;SDS011;43144;50.972;18.220;2022-09-09T04:26:37;7.50;;;7.00;;
57291;SDS011;43144;50.972;18.220;2022-09-09T04:29:06;7.40;;;6.90;;
57291;SDS011;43144;50.972;18.220;2022-09-09T04:31:34;7.20;;;6.60;;
57291;SDS011;43144;50.972;18.220;2022-09-09T04:34:02;7.10;;;6.50;;
57291;SDS011;43144;50.972;18.220;2022-09-09T04:36:30;10.20;;;7.10;;
57291;SDS011;43144;50.972;18.220;2022-09-09T04:38:59;7.30;;;6.80;;
57291;SDS011;43144;50.972;18.220;2022-09-09T04:41:27;7.20;;;6.70;;
57291;SDS011;43144;50.972;18.220;2022-09-09T04:43:55;7.20;;;6.70;;
57291;SDS011;43144;50.972;18.220;2022-09-09T04:46:23;7.20;;;6.60;;
57291;SDS011;43144;50.972;18.220;2022-09-09T04:48:52;7.20;;;6.50;;
57291;SDS011;43144;50.972;18.220;2022-09-09T04:51:21;7.30;;;6.70;;
57291;SDS011;43144;50.972;18.220;2022-09-09T04:53:49;7.20;;;6.70;;
57291;SDS011;43144;50.972;18.220;2022-09-09T04:56:18;7.00;;;6.50;;
57291;SDS011;43144;50.972;18.220;2022-09-09T04:58:46;7.60;;;7.00;;
57291;SDS011;43144;50.972;18.220;2022-09-09T05:01:15;8.10;;;7.40;;
57291;SDS011;43144;50.972;18.220;2022-09-09T05:03:45;8.50;;;8.00;;
57291;SDS011;43144;50.972;18.220;2022-09-09T05:06:14;7.40;;;6.90;;
57291;SDS011;43144;50.972;18.220;2022-09-09T05:08:43;7.60;;;7.00;;
57291;SDS011;43144;50.972;18.220;2022-09-09T05:11:15;7.90;;;7.30;;
57291;SDS011;43144;50.972;18.220;2022-09-09T05:13:45;7.20;;;6.70;;
57291;SDS011;43144;50.972;18.220;2022-09-09T05:16:14;8.30;;;7.80;;
57291;SDS011;43144;50.972;18.220;2022-09-09T05:18:42;7.50;;;7.00;;
57291;SDS011;43144;50.972;18.220;2022-09-09T05:21:12;7.20;;;6.60;;
57291;SDS011;43144;50.972;18.220;2022-09-09T05:23:41;7.60;;;7.10;;
57291;SDS011;43144;50.972;18.220;2022-09-09T05:26:11;7.40;;;6.70;;
57291;SDS011;43144;50.972;18.220;2022-09-09T05:28:41;7.70;;;7.10;;
57291;SDS011;43144;50.972;18.220;2022-09-09T05:31:09;10.20;;;9.40;;
57291;SDS011;43144;50.972;18.220;2022-09-09T05:33:38;9.80;;;9.00;;
57291;SDS011;43144;50.972;18.220;2022-09-09T05:36:08;6.80;;;6.40;;
57291;SDS011;43144;50.972;18.220;2022-09-09T05:38:37;7.00;;;6.30;;
57291;SDS011;43144;50.972;18.220;2022-09-09T05:41:06;8.80;;;7.70;;
57291;SDS011;43144;50.972;18.220;2022-09-09T05:43:35;7.80;;;7.10;;
57291;SDS011;43144;50.972;18.220;2022-09-09T05:46:04;6.70;;;6.10;;
57291;SDS011;43144;50.972;18.220;2022-09-09T05:48:33;6.30;;;5.70;;
57291;SDS011;43144;50.972;18.220;2022-09-09T05:51:02;6.00;;;5.60;;
57291;SDS011;43144;50.972;18.220;2022-09-09T05:53:32;6.60;;;6.00;;
57291;SDS011;43144;50.972;18.220;2022-09-09T05:56:01;6.70;;;5.90;;
57291;SDS011;43144;50.972;18.220;2022-09-09T05:58:31;8.30;;;7.80;;
57291;SDS011;43144;50.972;18.220;2022-09-09T06:01:05;8.30;;;6.10;;
57291;SDS011;43144;50.972;18.220;2022-09-09T06:03:35;6.40;;;5.90;;
57291;SDS011;43144;50.972;18.220;2022-09-09T06:06:05;7.90;;;7.20;;
57291;SDS011;43144;50.972;18.220;2022-09-09T06:08:35;7.10;;;6.50;;
57291;SDS011;43144;50.972;18.220;2022-09-09T06:11:05;8.80;;;8.30;;
57291;SDS011;43144;50.972;18.220;2022-09-09T06:13:35;8.40;;;7.80;;
57291;SDS011;43144;50.972;18.220;2022-09-09T06:16:03;6.30;;;5.70;;
57291;SDS011;43144;50.972;18.220;2022-09-09T06:18:32;8.40;;;6.50;;
57291;SDS011;43144;50.972;18.220;2022-09-09T06:21:02;7.00;;;6.20;;
57291;SDS011;43144;50.972;18.220;2022-09-09T06:23:31;6.70;;;6.10;;
57291;SDS011;43144;50.972;18.220;2022-09-09T06:26:04;10.10;;;5.50;;
57291;SDS011;43144;50.972;18.220;2022-09-09T06:28:33;6.80;;;6.30;;
57291;SDS011;43144;50.972;18.220;2022-09-09T06:31:02;5.80;;;5.20;;
57291;SDS011;43144;50.972;18.220;2022-09-09T06:33:33;5.50;;;5.20;;
57291;SDS011;43144;50.972;18.220;2022-09-09T06:36:02;7.10;;;5.10;;
57291;SDS011;43144;50.972;18.220;2022-09-09T06:38:32;5.50;;;5.10;;
57291;SDS011;43144;50.972;18.220;2022-09-09T06:41:00;6.20;;;5.10;;
57291;SDS011;43144;50.972;18.220;2022-09-09T06:43:28;7.10;;;6.40;;
57291;SDS011;43144;50.972;18.220;2022-09-09T06:45:57;5.70;;;5.20;;
57291;SDS011;43144;50.972;18.220;2022-09-09T06:48:26;6.10;;;5.50;;
57291;SDS011;43144;50.972;18.220;2022-09-09T06:51:01;5.50;;;5.00;;
57291;SDS011;43144;50.972;18.220;2022-09-09T06:53:31;5.90;;;5.00;;
57291;SDS011;43144;50.972;18.220;2022-09-09T06:56:00;5.80;;;5.30;;
57291;SDS011;43144;50.972;18.220;2022-09-09T06:58:28;5.10;;;4.60;;
57291;SDS011;43144;50.972;18.220;2022-09-09T07:01:02;6.30;;;5.80;;
57291;SDS011;43144;50.972;18.220;2022-09-09T07:03:31;7.50;;;6.90;;
57291;SDS011;43144;50.972;18.220;2022-09-09T07:06:00;5.30;;;4.90;;
57291;SDS011;43144;50.972;18.220;2022-09-09T07:08:28;6.70;;;6.00;;
57291;SDS011;43144;50.972;18.220;2022-09-09T07:11:01;5.70;;;4.80;;
57291;SDS011;43144;50.972;18.220;2022-09-09T07:13:30;6.50;;;4.80;;
57291;SDS011;43144;50.972;18.220;2022-09-09T07:16:04;5.20;;;4.40;;
57291;SDS011;43144;50.972;18.220;2022-09-09T07:18:33;5.30;;;4.80;;
57291;SDS011;43144;50.972;18.220;2022-09-09T07:21:01;5.30;;;4.70;;
57291;SDS011;43144;50.972;18.220;2022-09-09T07:23:30;4.60;;;4.00;;
57291;SDS011;43144;50.972;18.220;2022-09-09T07:25:59;4.60;;;3.70;;
57291;SDS011;43144;50.972;18.220;2022-09-09T07:28:27;4.80;;;4.40;;
57291;SDS011;43144;50.972;18.220;2022-09-09T07:30:56;5.50;;;4.00;;
57291;SDS011;43144;50.972;18.220;2022-09-09T07:33:26;5.60;;;4.40;;
57291;SDS011;43144;50.972;18.220;2022-09-09T07:35:54;4.60;;;4.20;;
57291;SDS011;43144;50.972;18.220;2022-09-09T07:38:30;3.70;;;3.40;;
57291;SDS011;43144;50.972;18.220;2022-09-09T07:41:03;5.30;;;3.70;;
57291;SDS011;43144;50.972;18.220;2022-09-09T07:43:33;6.60;;;6.00;;
57291;SDS011;43144;50.972;18.220;2022-09-09T07:46:01;4.80;;;4.30;;
57291;SDS011;43144;50.972;18.220;2022-09-09T07:48:30;5.00;;;4.60;;
57291;SDS011;43144;50.972;18.220;2022-09-09T07:51:07;4.30;;;3.90;;
57291;SDS011;43144;50.972;18.220;2022-09-09T07:53:36;4.80;;;4.50;;
57291;SDS011;43144;50.972;18.220;2022-09-09T07:56:05;4.70;;;4.30;;
57291;SDS011;43144;50.972;18.220;2022-09-09T07:58:36;4.40;;;4.10;;
57291;SDS011;43144;50.972;18.220;2022-09-09T08:01:08;6.20;;;5.50;;
57291;SDS011;43144;50.972;18.220;2022-09-09T08:03:38;4.30;;;4.00;;
57291;SDS011;43144;50.972;18.220;2022-09-09T08:06:08;4.10;;;3.90;;
57291;SDS011;43144;50.972;18.220;2022-09-09T08:08:36;5.90;;;3.80;;
57291;SDS011;43144;50.972;18.220;2022-09-09T08:11:06;4.10;;;3.80;;
57291;SDS011;43144;50.972;18.220;2022-09-09T08:13:36;4.20;;;3.90;;
57291;SDS011;43144;50.972;18.220;2022-09-09T08:16:05;4.60;;;4.20;;
57291;SDS011;43144;50.972;18.220;2022-09-09T08:18:35;4.20;;;3.60;;
57291;SDS011;43144;50.972;18.220;2022-09-09T08:21:07;6.30;;;5.80;;
57291;SDS011;43144;50.972;18.220;2022-09-09T08:23:37;4.50;;;4.20;;
57291;SDS011;43144;50.972;18.220;2022-09-09T08:26:08;5.20;;;4.90;;
57291;SDS011;43144;50.972;18.220;2022-09-09T08:28:38;4.10;;;3.70;;
57291;SDS011;43144;50.972;18.220;2022-09-09T08:31:09;2.80;;;2.60;;
57291;SDS011;43144;50.972;18.220;2022-09-09T08:33:39;4.00;;;2.90;;
57291;SDS011;43144;50.972;18.220;2022-09-09T08:36:09;2.70;;;2.50;;
57291;SDS011;43144;50.972;18.220;2022-09-09T08:38:38;2.90;;;2.30;;
57291;SDS011;43144;50.972;18.220;2022-09-09T08:41:12;2.90;;;2.50;;
57291;SDS011;43144;50.972;18.220;2022-09-09T08:43:49;3.90;;;3.20;;
57291;SDS011;43144;50.972;18.220;2022-09-09T08:46:26;3.70;;;2.60;;
57291;SDS011;43144;50.972;18.220;2022-09-09T08:49:00;6.90;;;6.40;;
57291;SDS011;43144;50.972;18.220;2022-09-09T08:51:31;4.80;;;2.40;;
57291;SDS011;43144;50.972;18.220;2022-09-09T08:54:01;8.20;;;3.80;;
57291;SDS011;43144;50.972;18.220;2022-09-09T08:56:30;6.90;;;5.10;;
57291;SDS011;43144;50.972;18.220;2022-09-09T08:59:00;4.90;;;4.50;;
57291;SDS011;43144;50.972;18.220;2022-09-09T09:01:35;4.00;;;2.80;;
57291;SDS011;43144;50.972;18.220;2022-09-09T09:04:11;4.70;;;3.00;;
57291;SDS011;43144;50.972;18.220;2022-09-09T09:06:49;2.40;;;2.10;;
57291;SDS011;43144;50.972;18.220;2022-09-09T09:09:22;3.70;;;3.40;;
57291;SDS011;43144;50.972;18.220;2022-09-09T09:12:13;5.10;;;4.70;;
57291;SDS011;43144;50.972;18.220;2022-09-09T09:14:43;2.30;;;1.90;;
57291;SDS011;43144;50.972;18.220;2022-09-09T09:17:13;3.20;;;2.90;;
57291;SDS011;43144;50.972;18.220;2022-09-09T09:19:43;3.40;;;3.10;;
57291;SDS011;43144;50.972;18.220;2022-09-09T09:22:14;3.80;;;3.40;;
57291;SDS011;43144;50.972;18.220;2022-09-09T09:24:48;2.80;;;2.30;;
57291;SDS011;43144;50.972;18.220;2022-09-09T09:27:21;2.50;;;2.30;;
57291;SDS011;43144;50.972;18.220;2022-09-09T09:29:56;3.10;;;1.80;;
57291;SDS011;43144;50.972;18.220;2022-09-09T09:32:27;3.70;;;2.30;;
57291;SDS011;43144;50.972;18.220;2022-09-09T09:34:57;2.70;;;1.90;;
57291;SDS011;43144;50.972;18.220;2022-09-09T09:37:28;4.80;;;1.90;;
57291;SDS011;43144;50.972;18.220;2022-09-09T09:40:08;4.60;;;2.00;;
57291;SDS011;43144;50.972;18.220;2022-09-09T09:42:37;3.10;;;1.90;;
57291;SDS011;43144;50.972;18.220;2022-09-09T09:47:45;2.80;;;1.60;;
57291;SDS011;43144;50.972;18.220;2022-09-09T09:50:24;4.80;;;2.00;;
57291;SDS011;43144;50.972;18.220;2022-09-09T09:52:55;2.90;;;2.20;;
57291;SDS011;43144;50.972;18.220;2022-09-09T09:55:24;3.20;;;2.10;;
57291;SDS011;43144;50.972;18.220;2022-09-09T09:57:54;3.60;;;2.00;;
57291;SDS011;43144;50.972;18.220;2022-09-09T10:00:30;6.70;;;6.20;;
57291;SDS011;43144;50.972;18.220;2022-09-09T10:03:00;3.60;;;2.30;;
57291;SDS011;43144;50.972;18.220;2022-09-09T10:05:29;3.90;;;2.00;;
57291;SDS011;43144;50.972;18.220;2022-09-09T10:08:02;6.20;;;5.70;;
57291;SDS011;43144;50.972;18.220;2022-09-09T10:10:40;4.00;;;1.80;;
57291;SDS011;43144;50.972;18.220;2022-09-09T10:13:18;3.60;;;3.30;;
57291;SDS011;43144;50.972;18.220;2022-09-09T10:15:50;5.50;;;5.00;;
57291;SDS011;43144;50.972;18.220;2022-09-09T10:18:34;3.60;;;3.30;;
57291;SDS011;43144;50.972;18.220;2022-09-09T10:21:09;2.30;;;1.70;;
57291;SDS011;43144;50.972;18.220;2022-09-09T10:23:49;2.80;;;2.40;;
57291;SDS011;43144;50.972;18.220;2022-09-09T10:26:28;3.10;;;2.60;;
57291;SDS011;43144;50.972;18.220;2022-09-09T10:29:07;4.40;;;3.90;;
57291;SDS011;43144;50.972;18.220;2022-09-09T10:31:51;3.00;;;2.20;;
57291;SDS011;43144;50.972;18.220;2022-09-09T10:34:37;3.50;;;3.20;;
57291;SDS011;43144;50.972;18.220;2022-09-09T10:37:19;4.90;;;2.50;;
57291;SDS011;43144;50.972;18.220;2022-09-09T10:39:53;3.70;;;2.40;;
57291;SDS011;43144;50.972;18.220;2022-09-09T10:42:26;7.60;;;3.40;;
57291;SDS011;43144;50.972;18.220;2022-09-09T10:45:04;4.50;;;4.20;;
57291;SDS011;43144;50.972;18.220;2022-09-09T10:47:42;4.00;;;3.60;;
57291;SDS011;43144;50.972;18.220;2022-09-09T10:50:22;3.70;;;3.20;;
57291;SDS011;43144;50.972;18.220;2022-09-09T10:53:02;2.80;;;1.70;;
57291;SDS011;43144;50.972;18.220;2022-09-09T10:55:38;4.30;;;2.40;;
57291;SDS011;43144;50.972;18.220;2022-09-09T10:58:10;2.60;;;1.90;;
57291;SDS011;43144;50.972;18.220;2022-09-09T11:00:42;4.50;;;3.30;;
57291;SDS011;43144;50.972;18.220;2022-09-09T11:05:43;3.00;;;1.60;;
57291;SDS011;43144;50.972;18.220;2022-09-09T11:08:13;4.80;;;1.40;;
57291;SDS011;43144;50.972;18.220;2022-09-09T11:10:44;3.30;;;2.60;;
57291;SDS011;43144;50.972;18.220;2022-09-09T11:13:15;2.90;;;1.50;;
57291;SDS011;43144;50.972;18.220;2022-09-09T11:15:46;3.20;;;1.30;;
57291;SDS011;43144;50.972;18.220;2022-09-09T11:18:19;2.80;;;1.80;;
57291;SDS011;43144;50.972;18.220;2022-09-09T11:20:49;3.60;;;1.70;;
57291;SDS011;43144;50.972;18.220;2022-09-09T11:23:19;1.30;;;1.20;;
57291;SDS011;43144;50.972;18.220;2022-09-09T11:25:50;3.40;;;3.10;;
57291;SDS011;43144;50.972;18.220;2022-09-09T11:28:25;2.40;;;2.00;;
57291;SDS011;43144;50.972;18.220;2022-09-09T11:31:02;2.00;;;1.50;;
57291;SDS011;43144;50.972;18.220;2022-09-09T11:33:46;7.50;;;1.70;;
57291;SDS011;43144;50.972;18.220;2022-09-09T11:36:28;1.90;;;1.10;;
57291;SDS011;43144;50.972;18.220;2022-09-09T11:39:05;3.30;;;1.90;;
57291;SDS011;43144;50.972;18.220;2022-09-09T11:41:47;2.40;;;1.40;;
57291;SDS011;43144;50.972;18.220;2022-09-09T11:44:18;1.40;;;1.20;;
57291;SDS011;43144;50.972;18.220;2022-09-09T11:46:50;1.80;;;0.90;;
57291;SDS011;43144;50.972;18.220;2022-09-09T11:49:25;2.90;;;2.00;;
57291;SDS011;43144;50.972;18.220;2022-09-09T11:51:55;3.90;;;2.40;;
57291;SDS011;43144;50.972;18.220;2022-09-09T11:54:28;3.50;;;2.90;;
57291;SDS011;43144;50.972;18.220;2022-09-09T11:56:57;2.10;;;1.90;;
57291;SDS011;43144;50.972;18.220;2022-09-09T11:59:26;4.10;;;3.50;;
57291;SDS011;43144;50.972;18.220;2022-09-09T12:01:56;4.40;;;4.10;;
57291;SDS011;43144;50.972;18.220;2022-09-09T12:07:04;3.20;;;1.30;;
57291;SDS011;43144;50.972;18.220;2022-09-09T12:09:49;3.30;;;1.90;;
57291;SDS011;43144;50.972;18.220;2022-09-09T12:12:23;2.00;;;1.10;;
57291;SDS011;43144;50.972;18.220;2022-09-09T12:14:56;1.80;;;1.40;;
57291;SDS011;43144;50.972;18.220;2022-09-09T12:17:27;2.90;;;1.20;;
57291;SDS011;43144;50.972;18.220;2022-09-09T12:22:40;1.70;;;1.10;;
57291;SDS011;43144;50.972;18.220;2022-09-09T12:25:18;3.70;;;1.40;;
57291;SDS011;43144;50.972;18.220;2022-09-09T12:27:54;3.30;;;2.60;;
57291;SDS011;43144;50.972;18.220;2022-09-09T12:30:29;2.20;;;1.20;;
57291;SDS011;43144;50.972;18.220;2022-09-09T12:33:06;4.00;;;3.50;;
57291;SDS011;43144;50.972;18.220;2022-09-09T12:35:37;2.40;;;2.20;;
57291;SDS011;43144;50.972;18.220;2022-09-09T12:38:06;3.50;;;1.60;;
57291;SDS011;43144;50.972;18.220;2022-09-09T12:40:38;3.30;;;1.20;;
57291;SDS011;43144;50.972;18.220;2022-09-09T12:43:18;3.00;;;1.50;;
57291;SDS011;43144;50.972;18.220;2022-09-09T12:45:47;1.80;;;1.40;;
57291;SDS011;43144;50.972;18.220;2022-09-09T12:48:16;3.80;;;3.50;;
57291;SDS011;43144;50.972;18.220;2022-09-09T12:50:46;2.10;;;1.10;;
57291;SDS011;43144;50.972;18.220;2022-09-09T12:53:18;2.60;;;1.30;;
57291;SDS011;43144;50.972;18.220;2022-09-09T12:55:50;1.70;;;1.30;;
57291;SDS011;43144;50.972;18.220;2022-09-09T12:58:20;2.40;;;1.20;;
57291;SDS011;43144;50.972;18.220;2022-09-09T13:00:50;3.60;;;1.20;;
57291;SDS011;43144;50.972;18.220;2022-09-09T13:03:20;3.60;;;1.00;;
57291;SDS011;43144;50.972;18.220;2022-09-09T13:05:49;1.90;;;1.00;;
57291;SDS011;43144;50.972;18.220;2022-09-09T13:08:18;2.30;;;1.20;;
57291;SDS011;43144;50.972;18.220;2022-09-09T13:10:48;2.90;;;1.20;;
57291;SDS011;43144;50.972;18.220;2022-09-09T13:13:19;2.20;;;1.00;;
57291;SDS011;43144;50.972;18.220;2022-09-09T13:15:52;3.40;;;1.10;;
57291;SDS011;43144;50.972;18.220;2022-09-09T13:18:23;2.70;;;1.30;;
57291;SDS011;43144;50.972;18.220;2022-09-09T13:20:52;3.00;;;1.50;;
57291;SDS011;43144;50.972;18.220;2022-09-09T13:23:20;2.90;;;1.00;;
57291;SDS011;43144;50.972;18.220;2022-09-09T13:25:54;2.20;;;1.30;;
57291;SDS011;43144;50.972;18.220;2022-09-09T13:28:24;3.90;;;1.20;;
57291;SDS011;43144;50.972;18.220;2022-09-09T13:30:57;2.00;;;1.10;;
57291;SDS011;43144;50.972;18.220;2022-09-09T13:33:30;4.00;;;1.20;;
57291;SDS011;43144;50.972;18.220;2022-09-09T13:38:27;2.50;;;1.20;;
57291;SDS011;43144;50.972;18.220;2022-09-09T13:40:57;1.50;;;0.90;;
57291;SDS011;43144;50.972;18.220;2022-09-09T13:43:26;2.30;;;1.00;;
57291;SDS011;43144;50.972;18.220;2022-09-09T13:45:56;2.30;;;0.90;;
57291;SDS011;43144;50.972;18.220;2022-09-09T13:48:25;1.70;;;0.90;;
57291;SDS011;43144;50.972;18.220;2022-09-09T13:50:56;2.10;;;1.10;;
57291;SDS011;43144;50.972;18.220;2022-09-09T13:53:26;1.70;;;1.10;;
57291;SDS011;43144;50.972;18.220;2022-09-09T13:55:54;2.00;;;0.90;;
57291;SDS011;43144;50.972;18.220;2022-09-09T13:58:22;2.90;;;1.10;;
57291;SDS011;43144;50.972;18.220;2022-09-09T14:00:52;3.30;;;1.30;;
57291;SDS011;43144;50.972;18.220;2022-09-09T14:03:20;2.50;;;1.00;;
57291;SDS011;43144;50.972;18.220;2022-09-09T14:05:49;2.20;;;0.90;;
57291;SDS011;43144;50.972;18.220;2022-09-09T14:08:21;2.40;;;0.90;;
57291;SDS011;43144;50.972;18.220;2022-09-09T14:10:51;1.90;;;1.00;;
57291;SDS011;43144;50.972;18.220;2022-09-09T14:13:19;1.70;;;0.80;;
57291;SDS011;43144;50.972;18.220;2022-09-09T14:15:49;2.30;;;0.90;;
57291;SDS011;43144;50.972;18.220;2022-09-09T14:18:17;2.40;;;0.80;;
57291;SDS011;43144;50.972;18.220;2022-09-09T14:20:45;1.70;;;0.90;;
57291;SDS011;43144;50.972;18.220;2022-09-09T14:23:13;2.00;;;0.80;;
57291;SDS011;43144;50.972;18.220;2022-09-09T14:25:42;3.60;;;0.80;;
57291;SDS011;43144;50.972;18.220;2022-09-09T14:28:12;2.40;;;1.30;;
57291;SDS011;43144;50.972;18.220;2022-09-09T14:30:41;1.90;;;0.90;;
57291;SDS011;43144;50.972;18.220;2022-09-09T14:33:11;2.20;;;0.80;;
57291;SDS011;43144;50.972;18.220;2022-09-09T14:35:40;1.80;;;0.90;;
57291;SDS011;43144;50.972;18.220;2022-09-09T14:38:08;3.60;;;1.40;;
57291;SDS011;43144;50.972;18.220;2022-09-09T14:40:37;4.80;;;1.00;;
57291;SDS011;43144;50.972;18.220;2022-09-09T14:43:06;2.50;;;0.80;;
57291;SDS011;43144;50.972;18.220;2022-09-09T14:45:36;3.70;;;0.90;;
57291;SDS011;43144;50.972;18.220;2022-09-09T14:48:04;3.30;;;0.80;;
57291;SDS011;43144;50.972;18.220;2022-09-09T14:50:32;3.60;;;1.10;;
57291;SDS011;43144;50.972;18.220;2022-09-09T14:53:01;1.30;;;0.70;;
57291;SDS011;43144;50.972;18.220;2022-09-09T14:55:29;4.60;;;2.10;;
57291;SDS011;43144;50.972;18.220;2022-09-09T14:57:57;2.70;;;1.20;;
57291;SDS011;43144;50.972;18.220;2022-09-09T15:00:26;2.40;;;1.10;;
57291;SDS011;43144;50.972;18.220;2022-09-09T15:02:54;3.10;;;1.00;;
57291;SDS011;43144;50.972;18.220;2022-09-09T15:05:23;2.10;;;0.90;;
57291;SDS011;43144;50.972;18.220;2022-09-09T15:07:51;2.60;;;1.40;;
57291;SDS011;43144;50.972;18.220;2022-09-09T15:10:19;1.50;;;1.00;;